Jackman, Maine
Current Conditions -  °F | °C
As of 11:00 PM on Monday 20 Oct 2014 (Local Time) from CYSC Reporting Station
Overcast Overcast  
Wind Chill: 39°   Ceiling: 4000
Heat Index: 39°   Visibility: 9mi
Dew Point: 37°   Wind: 2mph
Humidity: 93%   Direction: 110°ESE
Pressure: 29.96"   Gusts: NA
Location:  45.62°N, 70.25°W
Report Text: CYSC 210300Z AUTO 11002KT 9SM FEW029 OVC040 04/03 A2996 RMK SLP152
Loading
Personal Weather Stations






























Interactive Weather Map New forecast layout! Learn more

10-Day Weather Forecast

Advertisements
Track Severe Weather on mobile